Latest Weather Observations for Canberra

IDN60901

Issued at 7:01 am EST Sunday 23 July 2017 (issued every 10 minutes, with the page automatically refreshed every 10 minutes)

About weather observations | Map of Canberra area stations | Latest observations for Canberra area | Other Formats
Station Details ID: 070351 Name: CANBERRA AIRPORT Lat: -35.31 Lon: 149.20 Height: 577.05 m
Data from the previous 72 hours. | See also: Recent months at Canberra
Date/Time
EST
Temp
°C
App
Temp
°C
Dew
Point
°C
Rel
Hum
%
Delta-T
°C
Wind Press
QNH
hPa
Press
MSL
hPa
Rain since
9am
mm
Dir  Spd
km/h
Gust
km/h
Spd
kts
Gust
kts
23/06:30am 4.1 -0.6 -1.5 67 2.1 NW 13 24 7 13 1018.3 1019.5 0.0
23/06:00am 3.3 -2.1 -1.4 71 1.8 WNW 17 26 9 14 1018.3 1019.5 0.0
23/05:30am 3.9 1.0 -0.9 71 1.8 ESE 4 9 2 5 1017.8 1019.0 0.0
23/05:00am 2.3 -1.0 -1.0 79 1.2 SW 6 13 3 7 1018.3 1019.5 0.0
23/04:30am 0.7 -2.6 -1.2 87 0.7 SSW 6 7 3 4 1018.2 1019.4 0.0
23/04:00am 0.1 -2.8 -1.3 90 0.5 S 4 7 2 4 1018.2 1019.4 0.0
23/03:30am 0.7 -1.6 -2.0 82 1.0 CALM 0 0 0 0 1018.3 1019.5 0.0
23/03:00am 2.0 -1.3 -1.6 77 1.3 WNW 6 9 3 5 1018.5 1019.7 0.0
23/02:30am 2.0 -0.9 -1.2 79 1.2 NNE 4 7 2 4 1018.7 1019.9 0.0
23/02:00am 1.2 -2.2 -2.4 77 1.3 W 6 13 3 7 1018.8 1020.0 0.0
23/01:30am 2.7 -1.5 -1.1 76 1.4 NNE 11 17 6 9 1018.8 1020.0 0.0
23/01:00am 3.2 -0.6 -0.6 76 1.4 N 9 15 5 8 1018.8 1020.0 0.0
23/12:30am 2.8 -0.1 -1.4 74 1.6 N 4 13 2 7 1018.6 1019.8 0.0
23/12:00am 2.9 -1.3 -0.9 76 1.4 NNE 11 15 6 8 1019.0 1020.2 0.0
 
Date/Time
EST
Temp
°C
App
Temp
°C
Dew
Point
°C
Rel
Hum
%
Delta-T
°C
Wind Press
QNH
hPa
Press
MSL
hPa
Rain since
9am
mm
Dir  Spd
km/h
Gust
km/h
Spd
kts
Gust
kts
22/11:30pm 2.1 -0.9 -2.0 74 1.5 NE 4 7 2 4 1019.4 1020.6 0.0
22/11:00pm 3.0 -0.5 -1.5 72 1.7 NNE 7 9 4 5 1019.2 1020.4 0.0
22/10:30pm 3.8 -0.4 -1.0 71 1.8 N 11 15 6 8 1019.3 1020.5 0.0
22/10:00pm 4.5 0.7 -0.5 70 1.9 N 9 13 5 7 1019.3 1020.5 0.0
22/09:30pm 4.2 -1.1 -0.8 70 1.9 N 17 20 9 11 1019.4 1020.6 0.0
22/09:00pm 5.2 -0.6 -0.2 68 2.1 N 20 26 11 14 1019.3 1020.5 0.0
22/08:30pm 5.5 -0.4 -1.0 63 2.5 N 20 26 11 14 1019.3 1020.5 0.0
22/08:00pm 5.7 -0.7 -1.7 59 2.8 N 22 26 12 14 1019.4 1020.6 0.0
22/07:30pm 6.4 0.6 -1.7 56 3.1 N 19 26 10 14 1019.3 1020.5 0.0
22/07:00pm 5.9 0.0 -1.0 61 2.7 N 20 26 11 14 1019.2 1020.4 0.0
22/06:30pm 6.4 0.7 -1.0 59 2.9 N 19 24 10 13 1019.2 1020.4 0.0
22/06:00pm 6.9 0.2 -1.0 57 3.1 N 24 28 13 15 1019.0 1020.2 0.0
22/05:30pm 7.0 0.3 -1.2 56 3.2 NNW 24 33 13 18 1018.9 1020.1 0.0
22/05:00pm 8.4 1.7 -1.1 51 3.8 NNW 24 30 13 16 1018.7 1019.9 0.0
22/04:30pm 10.1 3.3 -1.6 44 4.7 NNW 24 30 13 16 1018.9 1020.1 0.0
22/04:00pm 11.3 4.8 -2.5 38 5.5 NNW 22 32 12 17 1019.0 1020.2 0.0
22/03:30pm 11.9 4.2 -3.1 35 5.9 NW 28 33 15 18 1019.1 1020.3 0.0
22/03:00pm 11.9 4.9 -0.6 42 5.2 NNW 26 33 14 18 1019.3 1020.5 0.0
22/02:30pm 12.5 5.1 -0.7 40 5.5 NNW 28 33 15 18 1019.5 1020.8 0.0
22/02:00pm 12.4 6.1 -0.8 40 5.5 NW 22 30 12 16 1019.9 1021.1 0.0
22/01:30pm 12.0 6.1 -0.8 41 5.3 NW 20 30 11 16 1020.3 1021.5 0.0
22/01:00pm 11.2 5.2 -1.5 41 5.2 NW 20 30 11 16 1020.9 1022.1 0.0
22/12:30pm 9.4 5.7 0.1 52 3.9 NW 9 11 5 6 1021.4 1022.7 0.0
22/12:00pm 5.6 3.3 0.2 68 2.2 NNE 2 7 1 4 1022.0 1023.2 0.0
22/11:30am 2.7 0.4 0.4 85 0.9 ENE 2 7 1 4 1022.8 1024.1 0.0
22/11:00am 0.8 -2.2 0.7 99 0.0 WNW 6 9 3 5 1023.3 1024.6 0.0
22/10:42am -0.2 -3.0 -0.3 99 0.0 WNW 4 9 2 5 1023.6 1024.8 0.0
22/10:30am -0.4 -3.2 -0.5 99 0.0 NW 4 9 2 5 1023.8 1025.0 0.0
22/10:05am -1.0 -3.9 -1.1 99 0.0 NW 4 9 2 5 1023.9 1025.2 0.0
22/10:00am -0.9 -3.8 -1.0 99 0.0 NNW 4 7 2 4 1023.9 1025.2 0.0
22/09:30am -1.2 -3.7 -1.3 99 0.0 NNE 2 7 1 4 1024.0 1025.3 0.0
22/09:24am -1.2 -4.1 -1.3 99 0.0 NE 4 7 2 4 1024.0 1025.3 0.0
22/09:00am -1.6 -4.2 -1.7 99 0.0 NNE 2 7 1 4 1023.8 1025.0 0.0
22/08:30am -2.1 -5.1 -2.2 99 -0.1 S 4 6 2 3 1023.8 1025.0 0.0
22/08:17am -2.3 -5.4 -2.4 99 -0.1 S 4 6 2 3 1023.6 1024.8 0.0
22/08:00am -3.1 -5.9 -3.2 99 -0.1 ESE 2 6 1 3 1023.6 1024.8 0.0
22/07:47am -3.6 -7.2 -3.7 99 -0.1 ESE 6 7 3 4 1023.7 1024.9 0.0
22/07:30am -4.0 -6.5 -4.1 99 -0.1 CALM 0 0 0 0 1023.8 1025.0 0.0
22/07:00am -5.1 -7.7 -5.2 99 -0.2 CALM 0 0 0 0 1023.4 1024.7 0.0
22/06:30am -6.5 -9.3 -6.8 98 -0.1 CALM 0 0 0 0 1023.0 1024.3 0.0
22/06:06am -6.1 -8.8 -6.2 99 -0.2 CALM 0 0 0 0 1022.8 1024.1 0.0
22/06:00am -6.7 -9.5 -7.0 98 -0.2 CALM 0 0 0 0 1022.8 1024.1 0.0
22/05:47am -7.0 -9.8 -7.4 97 -0.1 CALM 0 0 0 0 1023.0 1024.3 0.0
22/05:30am -6.6 -9.4 -6.7 99 -0.2 CALM 0 4 0 2 1022.8 1024.1 0.0
22/05:07am -6.7 -10.6 -6.8 99 -0.2 ESE 6 9 3 5 1022.4 1023.7 0.0
22/05:05am -6.7 -10.8 -6.8 99 -0.2 ESE 7 9 4 5 1022.4 1023.7 0.0
22/05:04am -6.6 -10.7 -6.7 99 -0.2 ESE 7 9 4 5 1022.4 1023.7 0.0
22/05:03am -6.4 -10.3 -6.5 99 -0.2 ESE 6 9 3 5 1022.4 1023.7 0.0
22/05:00am -6.8 -10.4 -6.9 99 -0.2 E 4 9 2 5 1022.4 1023.7 0.0
22/04:56am -7.1 -10.3 -7.4 98 -0.2 ENE 2 7 1 4 1022.4 1023.7 0.0
22/04:30am -6.7 -10.3 -7.0 98 -0.2 NW 4 6 2 3 1022.3 1023.5 0.0
22/04:28am -6.7 -10.6 -7.0 98 -0.2 NW 6 7 3 4 1022.3 1023.5 0.0
22/04:19am -6.9 -11.1 -7.4 96 -0.1 NNW 7 7 4 4 1022.3 1023.5 0.0
22/04:11am -6.3 -10.2 -6.7 97 -0.1 N 6 7 3 4 1022.3 1023.5 0.0
22/04:02am -6.2 -9.0 -6.6 97 -0.1 CALM 0 0 0 0 1022.3 1023.5 0.0
22/04:00am -5.9 -8.6 -6.3 97 -0.1 CALM 0 0 0 0 1022.3 1023.5 0.0
22/03:57am -5.6 -8.3 -5.9 98 -0.1 CALM 0 0 0 0 1022.3 1023.5 0.0
22/03:32am -4.7 -7.3 -4.8 99 -0.2 CALM 0 6 0 3 1022.4 1023.7 0.0
22/03:30am -4.8 -7.4 -4.9 99 -0.2 CALM 0 2 0 1 1022.4 1023.7 0.0
22/03:23am -5.3 -8.3 -5.4 99 -0.2 N 2 6 1 3 1022.6 1023.9 0.0
22/03:00am -5.7 -9.2 -6.4 95 0.0 NW 4 7 2 4 1022.6 1023.9 0.0
22/02:58am -5.3 -8.4 -5.8 96 -0.1 NNW 2 7 1 4 1022.7 1024.0 0.0
22/02:30am -4.2 -6.8 -4.6 97 0.0 CALM 0 0 0 0 1022.9 1024.2 0.0
22/02:00am -5.4 -9.5 -6.6 91 0.1 NNW 7 9 4 5 1023.0 1024.3 0.0
22/01:30am -3.6 -6.1 -3.9 98 -0.1 CALM 0 2 0 1 1023.2 1024.5 0.0
22/01:00am -3.1 -6.9 -3.5 97 0.0 NNW 7 7 4 4 1023.2 1024.5 0.0
22/12:30am -3.6 -7.3 -4.4 94 0.1 E 6 7 3 4 1023.3 1024.6 0.0
22/12:00am -3.1 -6.7 -3.8 95 0.1 S 6 9 3 5 1023.7 1024.9 0.0
 
Date/Time
EST
Temp
°C
App
Temp
°C
Dew
Point
°C
Rel
Hum
%
Delta-T
°C
Wind Press
QNH
hPa
Press
MSL
hPa
Rain since
9am
mm
Dir  Spd
km/h
Gust
km/h
Spd
kts
Gust
kts
21/11:30pm -2.3 -4.7 -2.8 96 0.1 CALM 0 0 0 0 1023.7 1024.9 0.0
21/11:00pm -1.6 -3.9 -2.4 94 0.2 CALM 0 0 0 0 1023.8 1025.0 0.0
21/10:30pm -1.4 -4.8 -2.2 94 0.2 NNE 6 7 3 4 1023.8 1025.0 0.0
21/10:00pm -1.7 -4.9 -3.6 87 0.6 E 4 6 2 3 1023.9 1025.2 0.0
21/09:30pm -1.3 -5.0 -2.7 90 0.4 ESE 7 9 4 5 1023.7 1024.9 0.0
21/09:00pm 0.4 -1.7 -1.0 90 0.5 CALM 0 0 0 0 1023.3 1024.6 0.0
21/08:30pm 1.3 -2.0 -0.9 85 0.8 SSE 6 7 3 4 1022.9 1024.2 0.0
21/08:00pm 1.4 -1.5 -1.0 84 0.9 SSE 4 9 2 5 1022.7 1024.0 0.0
21/07:30pm 0.5 -1.8 -2.5 80 1.1 CALM 0 6 0 3 1022.6 1023.9 0.0
21/07:00pm 3.7 0.3 -0.5 74 1.6 ENE 7 9 4 5 1022.4 1023.7 0.0
21/06:30pm 3.2 0.4 -0.3 78 1.3 NNE 4 7 2 4 1022.4 1023.7 0.0
21/06:00pm 4.1 0.8 -0.1 74 1.6 NNE 7 9 4 5 1022.2 1023.4 0.0
21/05:30pm 7.3 3.6 0.1 60 2.9 N 9 11 5 6 1022.0 1023.2 0.0
21/05:00pm 8.6 4.2 0.6 57 3.3 NNW 13 13 7 7 1021.8 1023.0 0.0
21/04:30pm 11.5 8.5 0.6 47 4.7 WNW 6 7 3 4 1021.5 1022.8 0.0
21/04:00pm 11.5 8.4 0.3 46 4.7 NE 6 7 3 4 1021.4 1022.7 0.0
21/03:30pm 11.6 8.4 0.7 47 4.7 W 7 11 4 6 1021.3 1022.6 0.0
21/03:00pm 11.5 7.6 0.9 48 4.6 WNW 11 17 6 9 1021.1 1022.4 0.0
21/02:30pm 11.7 7.7 0.8 47 4.7 W 11 15 6 8 1021.1 1022.4 0.0
21/02:00pm 11.8 7.9 1.2 48 4.6 W 11 15 6 8 1021.2 1022.5 0.0
21/01:30pm 11.0 7.0 0.7 49 4.4 S 11 15 6 8 1021.5 1022.8 0.0
21/01:00pm 10.7 7.1 0.7 50 4.2 WSW 9 20 5 11 1021.8 1023.0 0.0
21/12:30pm 10.4 6.4 0.4 50 4.2 SSW 11 17 6 9 1022.1 1023.3 0.0
21/12:00pm 9.4 5.1 0.8 55 3.6 SW 13 24 7 13 1022.6 1023.9 0.0
21/11:30am 9.4 4.7 1.1 56 3.5 SW 15 20 8 11 1022.9 1024.2 0.0
21/11:00am 8.9 3.4 0.9 57 3.4 SSW 19 28 10 15 1023.0 1024.3 0.0
21/10:30am 7.1 4.0 0.1 61 2.8 NNE 6 11 3 6 1023.2 1024.5 0.0
21/10:00am 6.2 2.9 -0.1 64 2.5 NNE 7 9 4 5 1023.2 1024.5 0.0
21/09:30am 4.8 1.5 0.4 73 1.8 N 7 11 4 6 1023.0 1024.3 0.0
21/09:00am 3.5 0.3 -0.3 76 1.5 NNW 6 9 3 5 1022.6 1023.9 0.0
21/08:30am 1.8 -1.7 -1.3 80 1.1 N 7 9 4 5 1022.3 1023.5 0.0
21/08:00am 0.0 -3.6 -1.9 87 0.7 N 7 9 4 5 1021.9 1023.1 0.0
21/07:30am -2.9 -6.8 -4.2 91 0.3 NW 7 9 4 5 1021.4 1022.7 0.0
21/07:00am -3.2 -7.5 -4.9 88 0.4 NNW 9 13 5 7 1021.1 1022.4 0.0
21/06:30am -2.4 -6.2 -3.8 90 0.4 NE 7 9 4 5 1020.8 1022.0 0.0
21/06:00am -2.3 -6.0 -4.8 83 0.7 NNW 6 9 3 5 1020.5 1021.7 0.0
21/05:30am 2.0 -1.4 -2.1 74 1.5 SW 6 11 3 6 1019.7 1021.0 0.0
21/05:00am -0.1 -4.2 -3.3 79 1.1 N 9 11 5 6 1019.2 1020.4 0.0
21/04:30am 0.5 -3.5 -1.9 84 0.9 N 9 13 5 7 1019.0 1020.2 0.0
21/04:00am -1.0 -5.2 -4.3 78 1.1 NNE 9 11 5 6 1019.0 1020.2 0.0
21/03:30am -1.6 -5.8 -3.9 84 0.7 ESE 9 13 5 7 1018.9 1020.1 0.0
21/03:00am -1.8 -6.1 -4.6 81 0.8 S 9 13 5 7 1018.7 1019.9 0.0
21/02:30am 1.2 -3.3 -3.3 72 1.6 WSW 11 15 6 8 1018.9 1020.1 0.0
21/02:00am 0.6 -3.4 -2.4 80 1.1 N 9 11 5 6 1019.0 1020.2 0.0
21/01:30am 0.3 -3.5 -3.8 74 1.4 S 7 7 4 4 1018.9 1020.1 0.0
21/01:00am 0.2 -5.1 -3.7 75 1.3 SSW 15 17 8 9 1018.8 1020.0 0.0
21/12:30am 0.2 -4.3 -3.5 76 1.3 S 11 17 6 9 1018.6 1019.8 0.0
21/12:00am -0.2 -4.8 -3.9 76 1.2 NNW 11 13 6 7 1018.5 1019.7 0.0
 
Date/Time
EST
Temp
°C
App
Temp
°C
Dew
Point
°C
Rel
Hum
%
Delta-T
°C
Wind Press
QNH
hPa
Press
MSL
hPa
Rain since
9am
mm
Dir  Spd
km/h
Gust
km/h
Spd
kts
Gust
kts
20/11:30pm 0.4 -3.8 -3.7 74 1.4 S 9 11 5 6 1018.3 1019.5 0.0
20/11:00pm 0.9 -2.9 -3.6 72 1.6 S 7 11 4 6 1018.2 1019.4 0.0
20/10:30pm 0.9 -1.4 -2.7 77 1.3 CALM 0 7 0 4 1018.2 1019.4 0.0
20/10:00pm -0.4 -3.0 -2.0 89 0.5 ENE 2 7 1 4 1017.7 1018.9 0.0
20/09:30pm -0.2 -4.1 -1.3 92 0.4 SSW 9 11 5 6 1017.4 1018.6 0.0
20/09:00pm 0.0 -2.4 -3.2 79 1.1 CALM 0 0 0 0 1017.0 1018.2 0.0
20/08:30pm 2.4 -1.1 -1.2 77 1.3 E 7 11 4 6 1016.8 1018.0 0.0
20/08:00pm 5.0 1.9 0.4 72 1.8 S 6 9 3 5 1016.5 1017.6 0.0
20/07:30pm 5.4 0.6 0.4 70 2.0 SE 15 22 8 12 1016.6 1017.8 0.0
20/07:00pm 5.7 1.3 0.1 67 2.2 SW 13 15 7 8 1016.3 1017.4 0.0
20/06:30pm 5.9 1.1 0.3 67 2.3 W 15 20 8 11 1015.6 1016.8 0.0
20/06:00pm 6.0 1.2 -0.1 65 2.4 W 15 20 8 11 1014.9 1016.0 0.0
20/05:30pm 6.4 0.5 -0.6 61 2.8 W 20 30 11 16 1014.5 1015.6 0.0
20/05:00pm 6.9 0.3 -0.5 59 3.0 W 24 33 13 18 1013.7 1014.9 0.0
20/04:30pm 7.6 -0.2 -0.8 55 3.3 W 30 43 16 23 1013.3 1014.4 0.0
20/04:00pm 8.4 0.6 -0.6 53 3.6 W 30 39 16 21 1013.1 1014.2 0.0
20/03:30pm 8.7 0.6 -0.3 53 3.7 W 32 44 17 24 1012.9 1014.0 0.0
20/03:00pm 9.0 0.9 -0.1 53 3.7 WNW 32 43 17 23 1012.9 1014.0 0.0
20/02:30pm 9.0 0.9 -0.3 52 3.8 WNW 32 44 17 24 1012.7 1013.8 0.0
20/02:00pm 8.9 0.9 0.4 55 3.5 WNW 32 44 17 24 1012.3 1013.5 0.0
20/01:30pm 9.2 1.6 0.6 55 3.6 WNW 30 44 16 24 1012.6 1013.7 0.0
20/01:00pm 9.6 1.6 0.2 52 3.9 WNW 32 44 17 24 1012.6 1013.7 0.0
20/12:30pm 9.0 1.1 1.0 57 3.4 NNW 32 37 17 20 1012.7 1013.8 0.0
20/12:00pm 10.0 2.5 0.9 53 3.9 NNW 30 37 16 20 1013.0 1014.1 0.0
20/11:30am 9.4 1.2 0.1 52 3.9 NW 33 39 18 21 1013.2 1014.3 0.0
20/11:00am 9.3 2.0 0.2 53 3.8 NW 28 35 15 19 1013.5 1014.6 0.0
20/10:30am 8.0 0.7 0.0 57 3.3 NNW 28 37 15 20 1013.8 1015.0 0.0
20/10:00am 7.8 2.0 0.1 58 3.1 WNW 20 28 11 15 1013.9 1015.1 0.0
20/09:30am 7.0 0.8 0.0 61 2.8 WNW 22 32 12 17 1013.8 1015.0 0.0
20/09:00am 6.1 0.1 1.1 70 2.1 WNW 22 28 12 15 1013.7 1014.9 0.0
20/08:30am 5.5 -0.9 1.1 73 1.8 NW 24 32 13 17 1013.4 1014.5 0.0
20/08:00am 4.2 -1.7 1.4 82 1.1 NW 22 28 12 15 1013.4 1014.5 0.0
20/07:30am 3.9 -1.6 1.8 86 0.9 NW 20 30 11 16 1013.2 1014.3 0.0

Latest Capital City Observations: Canberra | Sydney | Melbourne | Brisbane | Adelaide | Perth | Hobart | Darwin

Other Formats:

Comma delimited format used in spreadsheet applications
http://www.bom.gov.au/fwo/IDN60903/IDN60903.94926.axf

JavaScript Object Notation format (JSON) in row-major order
http://www.bom.gov.au/fwo/IDN60903/IDN60903.94926.json